sensor_id;sensor_type;location;lat;lon;timestamp;pressure;altitude;pressure_sealevel;temperature;humidity
41140;BME280;26881;48.784;9.192;2024-02-26T00:05:19;96700.09;;;8.21;54.88
41140;BME280;26881;48.784;9.192;2024-02-26T00:10:41;96702.81;;;8.20;54.00
41140;BME280;26881;48.784;9.192;2024-02-26T00:16:04;96692.03;;;8.24;54.23
41140;BME280;26881;48.784;9.192;2024-02-26T00:21:28;96693.47;;;8.17;54.20
41140;BME280;26881;48.784;9.192;2024-02-26T00:26:49;96696.56;;;8.11;54.68
41140;BME280;26881;48.784;9.192;2024-02-26T00:32:15;96692.03;;;8.13;54.43
41140;BME280;26881;48.784;9.192;2024-02-26T00:37:36;96686.25;;;8.10;54.75
41140;BME280;26881;48.784;9.192;2024-02-26T00:42:58;96682.84;;;8.09;54.35
41140;BME280;26881;48.784;9.192;2024-02-26T00:48:20;96687.69;;;8.14;54.28
41140;BME280;26881;48.784;9.192;2024-02-26T00:53:42;96688.50;;;8.14;54.74
41140;BME280;26881;48.784;9.192;2024-02-26T00:59:04;96688.50;;;8.14;55.35
41140;BME280;26881;48.784;9.192;2024-02-26T01:04:26;96689.81;;;8.09;55.19
41140;BME280;26881;48.784;9.192;2024-02-26T01:09:49;96676.56;;;8.00;55.56
41140;BME280;26881;48.784;9.192;2024-02-26T01:15:11;96686.88;;;8.02;56.21
41140;BME280;26881;48.784;9.192;2024-02-26T01:20:33;96689.84;;;7.97;56.54
41140;BME280;26881;48.784;9.192;2024-02-26T01:25:55;96678.47;;;7.98;57.29
41140;BME280;26881;48.784;9.192;2024-02-26T01:31:17;96691.75;;;7.95;58.41
41140;BME280;26881;48.784;9.192;2024-02-26T01:36:39;96678.13;;;7.92;57.30
41140;BME280;26881;48.784;9.192;2024-02-26T01:42:01;96682.97;;;7.85;58.12
41140;BME280;26881;48.784;9.192;2024-02-26T01:47:23;96708.28;;;7.83;59.64
41140;BME280;26881;48.784;9.192;2024-02-26T01:52:46;96715.63;;;7.89;58.57
41140;BME280;26881;48.784;9.192;2024-02-26T01:58:08;96711.75;;;7.84;58.65
41140;BME280;26881;48.784;9.192;2024-02-26T02:03:31;96711.50;;;7.87;59.14
41140;BME280;26881;48.784;9.192;2024-02-26T02:08:54;96729.00;;;7.85;58.71
41140;BME280;26881;48.784;9.192;2024-02-26T02:14:16;96743.09;;;7.93;58.42
41140;BME280;26881;48.784;9.192;2024-02-26T02:19:40;96734.66;;;7.78;59.59
41140;BME280;26881;48.784;9.192;2024-02-26T02:25:02;96729.00;;;7.73;59.62
41140;BME280;26881;48.784;9.192;2024-02-26T02:30:28;96736.22;;;7.70;60.22
41140;BME280;26881;48.784;9.192;2024-02-26T02:35:51;96730.06;;;7.71;60.59
41140;BME280;26881;48.784;9.192;2024-02-26T02:41:15;96733.84;;;7.78;59.54
41140;BME280;26881;48.784;9.192;2024-02-26T02:46:38;96726.41;;;7.73;60.08
41140;BME280;26881;48.784;9.192;2024-02-26T02:52:00;96714.59;;;7.69;60.63
41140;BME280;26881;48.784;9.192;2024-02-26T02:57:22;96734.06;;;7.52;61.26
41140;BME280;26881;48.784;9.192;2024-02-26T03:02:44;96747.78;;;7.54;61.04
41140;BME280;26881;48.784;9.192;2024-02-26T03:08:07;96746.28;;;7.63;61.53
41140;BME280;26881;48.784;9.192;2024-02-26T03:13:29;96740.47;;;7.71;61.35
41140;BME280;26881;48.784;9.192;2024-02-26T03:18:51;96722.16;;;7.72;61.59
41140;BME280;26881;48.784;9.192;2024-02-26T03:24:13;96729.25;;;7.59;61.77
41140;BME280;26881;48.784;9.192;2024-02-26T03:29:35;96731.72;;;7.60;61.61
41140;BME280;26881;48.784;9.192;2024-02-26T03:34:57;96730.06;;;7.59;62.53
41140;BME280;26881;48.784;9.192;2024-02-26T03:40:19;96718.00;;;7.58;63.25
41140;BME280;26881;48.784;9.192;2024-02-26T03:45:41;96700.72;;;7.57;63.28
41140;BME280;26881;48.784;9.192;2024-02-26T03:51:03;96706.53;;;7.61;63.64
41140;BME280;26881;48.784;9.192;2024-02-26T03:56:26;96694.13;;;7.53;65.44
41140;BME280;26881;48.784;9.192;2024-02-26T04:01:48;96713.25;;;7.52;65.39
41140;BME280;26881;48.784;9.192;2024-02-26T04:07:11;96707.94;;;7.43;65.37
41140;BME280;26881;48.784;9.192;2024-02-26T04:12:33;96698.59;;;7.40;64.25
41140;BME280;26881;48.784;9.192;2024-02-26T04:17:55;96692.34;;;7.43;65.62
41140;BME280;26881;48.784;9.192;2024-02-26T04:23:17;96684.44;;;7.44;66.70
41140;BME280;26881;48.784;9.192;2024-02-26T04:28:39;96696.34;;;7.35;67.96
41140;BME280;26881;48.784;9.192;2024-02-26T04:34:01;96701.03;;;7.08;68.75
41140;BME280;26881;48.784;9.192;2024-02-26T04:39:23;96696.56;;;7.10;68.74
41140;BME280;26881;48.784;9.192;2024-02-26T04:44:45;96701.50;;;7.13;68.90
41140;BME280;26881;48.784;9.192;2024-02-26T04:50:07;96699.41;;;7.18;68.57
41140;BME280;26881;48.784;9.192;2024-02-26T04:55:29;96700.25;;;7.30;67.07
41140;BME280;26881;48.784;9.192;2024-02-26T05:00:51;96685.38;;;7.54;61.26
41140;BME280;26881;48.784;9.192;2024-02-26T05:06:13;96696.59;;;7.55;62.23
41140;BME280;26881;48.784;9.192;2024-02-26T05:11:35;96712.91;;;7.46;64.52
41140;BME280;26881;48.784;9.192;2024-02-26T05:17:00;96703.47;;;7.45;66.94
41140;BME280;26881;48.784;9.192;2024-02-26T05:22:22;96717.63;;;7.41;65.91
41140;BME280;26881;48.784;9.192;2024-02-26T05:27:44;96714.31;;;7.38;63.06
41140;BME280;26881;48.784;9.192;2024-02-26T05:33:06;96721.19;;;7.39;63.88
41140;BME280;26881;48.784;9.192;2024-02-26T05:38:28;96732.16;;;7.43;62.58
41140;BME280;26881;48.784;9.192;2024-02-26T05:43:50;96755.13;;;7.49;62.25
41140;BME280;26881;48.784;9.192;2024-02-26T05:49:12;96768.00;;;7.39;62.86
41140;BME280;26881;48.784;9.192;2024-02-26T05:54:34;96772.03;;;7.44;63.93
41140;BME280;26881;48.784;9.192;2024-02-26T05:59:56;96765.88;;;7.45;66.62
41140;BME280;26881;48.784;9.192;2024-02-26T06:05:18;96758.31;;;7.42;67.52
41140;BME280;26881;48.784;9.192;2024-02-26T06:10:40;96756.63;;;7.41;67.25
41140;BME280;26881;48.784;9.192;2024-02-26T06:16:02;96765.75;;;7.35;69.46
41140;BME280;26881;48.784;9.192;2024-02-26T06:21:24;96780.88;;;7.06;77.60
41140;BME280;26881;48.784;9.192;2024-02-26T06:26:46;96780.63;;;6.97;77.70
41140;BME280;26881;48.784;9.192;2024-02-26T06:32:08;96777.75;;;6.89;79.21
41140;BME280;26881;48.784;9.192;2024-02-26T06:37:30;96782.56;;;6.83;82.04
41140;BME280;26881;48.784;9.192;2024-02-26T06:42:52;96790.09;;;6.74;79.45
41140;BME280;26881;48.784;9.192;2024-02-26T06:48:14;96796.19;;;6.62;84.52
41140;BME280;26881;48.784;9.192;2024-02-26T06:53:36;96801.72;;;6.82;86.29
41140;BME280;26881;48.784;9.192;2024-02-26T06:58:58;96806.09;;;6.81;85.43
41140;BME280;26881;48.784;9.192;2024-02-26T07:04:20;96820.13;;;6.79;85.12
41140;BME280;26881;48.784;9.192;2024-02-26T07:09:42;96839.22;;;6.90;83.57
41140;BME280;26881;48.784;9.192;2024-02-26T07:15:05;96836.03;;;6.98;81.64
41140;BME280;26881;48.784;9.192;2024-02-26T07:20:30;96847.56;;;7.07;80.63
41140;BME280;26881;48.784;9.192;2024-02-26T07:25:52;96848.75;;;7.14;76.16
41140;BME280;26881;48.784;9.192;2024-02-26T07:31:14;96851.19;;;7.28;75.70
41140;BME280;26881;48.784;9.192;2024-02-26T07:36:36;96853.34;;;7.46;74.99
41140;BME280;26881;48.784;9.192;2024-02-26T07:41:58;96858.38;;;7.60;74.66
41140;BME280;26881;48.784;9.192;2024-02-26T07:47:20;96854.44;;;7.54;73.21
41140;BME280;26881;48.784;9.192;2024-02-26T07:52:43;96865.84;;;7.65;71.68
41140;BME280;26881;48.784;9.192;2024-02-26T07:58:06;96874.00;;;7.71;67.38
41140;BME280;26881;48.784;9.192;2024-02-26T08:03:30;96861.50;;;7.88;69.30
41140;BME280;26881;48.784;9.192;2024-02-26T08:08:52;96852.06;;;8.09;70.47
41140;BME280;26881;48.784;9.192;2024-02-26T08:14:15;96853.84;;;8.31;72.11
41140;BME280;26881;48.784;9.192;2024-02-26T08:19:37;96856.38;;;8.44;70.53
41140;BME280;26881;48.784;9.192;2024-02-26T08:24:59;96854.69;;;8.43;69.54
41140;BME280;26881;48.784;9.192;2024-02-26T08:30:21;96848.03;;;8.39;62.48
41140;BME280;26881;48.784;9.192;2024-02-26T08:35:43;96839.06;;;8.43;61.46
41140;BME280;26881;48.784;9.192;2024-02-26T08:41:05;96847.69;;;8.66;60.60
41140;BME280;26881;48.784;9.192;2024-02-26T08:46:27;96852.53;;;8.71;59.50
41140;BME280;26881;48.784;9.192;2024-02-26T08:51:49;96864.19;;;8.99;58.50
41140;BME280;26881;48.784;9.192;2024-02-26T09:02:36;96857.44;;;9.40;60.16
41140;BME280;26881;48.784;9.192;2024-02-26T09:08:00;96862.59;;;9.51;61.03
41140;BME280;26881;48.784;9.192;2024-02-26T09:13:22;96858.53;;;9.58;60.26
41140;BME280;26881;48.784;9.192;2024-02-26T09:18:44;96861.69;;;9.62;59.89
41140;BME280;26881;48.784;9.192;2024-02-26T09:24:06;96858.22;;;9.52;59.29
41140;BME280;26881;48.784;9.192;2024-02-26T09:29:28;96861.91;;;9.70;60.01
41140;BME280;26881;48.784;9.192;2024-02-26T09:34:51;96871.75;;;9.87;58.92
41140;BME280;26881;48.784;9.192;2024-02-26T09:40:12;96865.66;;;9.98;57.33
41140;BME280;26881;48.784;9.192;2024-02-26T09:45:35;96872.09;;;9.94;57.48
41140;BME280;26881;48.784;9.192;2024-02-26T09:50:57;96865.06;;;9.95;56.73
41140;BME280;26881;48.784;9.192;2024-02-26T09:56:19;96874.69;;;10.15;54.98
41140;BME280;26881;48.784;9.192;2024-02-26T10:01:44;96878.25;;;10.75;55.89
41140;BME280;26881;48.784;9.192;2024-02-26T10:07:10;96864.88;;;12.62;51.73
41140;BME280;26881;48.784;9.192;2024-02-26T10:12:33;96862.78;;;14.95;46.95
41140;BME280;26881;48.784;9.192;2024-02-26T10:17:55;96834.72;;;17.29;39.99
41140;BME280;26881;48.784;9.192;2024-02-26T10:23:17;96859.03;;;16.93;38.81
41140;BME280;26881;48.784;9.192;2024-02-26T10:28:41;96875.63;;;14.99;42.35
41140;BME280;26881;48.784;9.192;2024-02-26T10:34:03;96870.13;;;16.16;41.26
41140;BME280;26881;48.784;9.192;2024-02-26T10:39:26;96861.03;;;16.43;40.10
41140;BME280;26881;48.784;9.192;2024-02-26T10:44:48;96850.44;;;16.52;40.30
41140;BME280;26881;48.784;9.192;2024-02-26T10:50:12;96863.88;;;16.17;40.34
41140;BME280;26881;48.784;9.192;2024-02-26T10:55:35;96862.84;;;16.35;39.77
41140;BME280;26881;48.784;9.192;2024-02-26T11:00:59;96865.84;;;16.71;38.65
41140;BME280;26881;48.784;9.192;2024-02-26T11:06:22;96860.28;;;17.37;37.77
41140;BME280;26881;48.784;9.192;2024-02-26T11:11:44;96859.19;;;18.30;36.32
41140;BME280;26881;48.784;9.192;2024-02-26T11:17:08;96855.72;;;20.39;33.00
41140;BME280;26881;48.784;9.192;2024-02-26T11:22:31;96861.59;;;18.02;36.00
41140;BME280;26881;48.784;9.192;2024-02-26T11:27:57;96862.53;;;19.13;34.87
41140;BME280;26881;48.784;9.192;2024-02-26T11:33:20;96859.31;;;17.99;37.07
41140;BME280;26881;48.784;9.192;2024-02-26T11:38:43;96871.28;;;17.48;37.72
41140;BME280;26881;48.784;9.192;2024-02-26T11:44:05;96879.38;;;15.96;40.53
41140;BME280;26881;48.784;9.192;2024-02-26T11:49:29;96890.53;;;15.57;41.77
41140;BME280;26881;48.784;9.192;2024-02-26T11:54:53;96886.03;;;15.08;42.93
41140;BME280;26881;48.784;9.192;2024-02-26T12:00:16;96884.34;;;15.91;41.79
41140;BME280;26881;48.784;9.192;2024-02-26T12:05:45;96877.28;;;16.63;40.54
41140;BME280;26881;48.784;9.192;2024-02-26T12:11:14;96885.78;;;16.26;41.38
41140;BME280;26881;48.784;9.192;2024-02-26T12:16:38;96889.44;;;15.84;41.50
41140;BME280;26881;48.784;9.192;2024-02-26T12:22:00;96899.44;;;15.39;42.53
41140;BME280;26881;48.784;9.192;2024-02-26T12:27:22;96900.50;;;15.12;43.44
41140;BME280;26881;48.784;9.192;2024-02-26T12:32:46;96916.03;;;14.81;44.36
41140;BME280;26881;48.784;9.192;2024-02-26T12:38:08;96906.59;;;13.92;45.47
41140;BME280;26881;48.784;9.192;2024-02-26T12:43:30;96910.41;;;14.24;46.66
41140;BME280;26881;48.784;9.192;2024-02-26T12:48:55;96903.94;;;15.05;44.17
41140;BME280;26881;48.784;9.192;2024-02-26T12:54:19;96901.59;;;16.98;41.04
41140;BME280;26881;48.784;9.192;2024-02-26T12:59:41;96902.50;;;16.74;40.33
41140;BME280;26881;48.784;9.192;2024-02-26T13:05:05;96912.16;;;16.26;41.25
41140;BME280;26881;48.784;9.192;2024-02-26T13:10:29;96907.94;;;16.73;40.45
41140;BME280;26881;48.784;9.192;2024-02-26T13:16:02;96909.06;;;16.87;39.94
41140;BME280;26881;48.784;9.192;2024-02-26T13:21:24;96906.81;;;16.67;40.07
41140;BME280;26881;48.784;9.192;2024-02-26T13:26:54;96912.97;;;16.27;40.48
41140;BME280;26881;48.784;9.192;2024-02-26T13:32:16;96909.00;;;16.47;39.76
41140;BME280;26881;48.784;9.192;2024-02-26T13:37:39;96914.25;;;16.47;39.59
41140;BME280;26881;48.784;9.192;2024-02-26T13:43:01;96914.75;;;16.51;40.07
41140;BME280;26881;48.784;9.192;2024-02-26T13:48:23;96916.50;;;16.75;39.58
41140;BME280;26881;48.784;9.192;2024-02-26T13:53:47;96907.22;;;16.95;39.08
41140;BME280;26881;48.784;9.192;2024-02-26T13:59:08;96914.38;;;17.49;38.72
41140;BME280;26881;48.784;9.192;2024-02-26T14:04:30;96915.09;;;17.66;37.25
41140;BME280;26881;48.784;9.192;2024-02-26T14:09:52;96904.88;;;18.09;36.55
41140;BME280;26881;48.784;9.192;2024-02-26T14:15:14;96911.50;;;18.58;35.76
41140;BME280;26881;48.784;9.192;2024-02-26T14:20:36;96911.81;;;18.92;35.00
41140;BME280;26881;48.784;9.192;2024-02-26T14:25:58;96908.84;;;18.43;35.29
41140;BME280;26881;48.784;9.192;2024-02-26T14:31:22;96909.97;;;19.08;33.54
41140;BME280;26881;48.784;9.192;2024-02-26T14:36:44;96911.47;;;19.32;33.41
41140;BME280;26881;48.784;9.192;2024-02-26T14:42:08;96904.69;;;19.66;32.26
41140;BME280;26881;48.784;9.192;2024-02-26T14:47:30;96912.16;;;18.74;33.98
41140;BME280;26881;48.784;9.192;2024-02-26T14:52:52;96901.59;;;17.84;35.72
41140;BME280;26881;48.784;9.192;2024-02-26T14:58:14;96917.28;;;17.31;37.01
41140;BME280;26881;48.784;9.192;2024-02-26T15:03:36;96930.00;;;16.96;36.69
41140;BME280;26881;48.784;9.192;2024-02-26T15:08:58;96915.94;;;16.48;38.02
41140;BME280;26881;48.784;9.192;2024-02-26T15:14:20;96935.75;;;16.03;39.56
41140;BME280;26881;48.784;9.192;2024-02-26T15:19:42;96944.88;;;15.50;40.00
41140;BME280;26881;48.784;9.192;2024-02-26T15:25:05;96949.97;;;15.35;40.29
41140;BME280;26881;48.784;9.192;2024-02-26T15:30:27;96950.94;;;14.91;40.57
41140;BME280;26881;48.784;9.192;2024-02-26T15:35:51;96955.56;;;14.63;41.90
41140;BME280;26881;48.784;9.192;2024-02-26T15:41:13;96950.53;;;14.26;43.04
41140;BME280;26881;48.784;9.192;2024-02-26T15:46:40;96951.09;;;14.11;43.54
41140;BME280;26881;48.784;9.192;2024-02-26T15:52:02;96960.72;;;13.85;44.44
41140;BME280;26881;48.784;9.192;2024-02-26T15:57:26;96959.00;;;13.76;45.28
41140;BME280;26881;48.784;9.192;2024-02-26T16:02:48;96977.91;;;13.61;46.53
41140;BME280;26881;48.784;9.192;2024-02-26T16:08:20;96976.19;;;13.52;47.37
41140;BME280;26881;48.784;9.192;2024-02-26T16:13:43;96993.66;;;13.43;47.90
41140;BME280;26881;48.784;9.192;2024-02-26T16:19:11;96998.53;;;13.28;48.20
41140;BME280;26881;48.784;9.192;2024-02-26T16:24:37;97012.69;;;13.18;49.31
41140;BME280;26881;48.784;9.192;2024-02-26T16:29:59;97020.88;;;13.05;49.74
41140;BME280;26881;48.784;9.192;2024-02-26T16:35:21;97036.13;;;12.92;50.95
41140;BME280;26881;48.784;9.192;2024-02-26T16:40:43;97052.16;;;12.79;52.08
41140;BME280;26881;48.784;9.192;2024-02-26T16:46:05;97061.16;;;12.67;51.94
41140;BME280;26881;48.784;9.192;2024-02-26T16:51:27;97064.63;;;12.57;51.30
41140;BME280;26881;48.784;9.192;2024-02-26T16:56:49;97066.88;;;12.42;50.50
41140;BME280;26881;48.784;9.192;2024-02-26T17:02:11;97078.44;;;12.30;50.25
41140;BME280;26881;48.784;9.192;2024-02-26T17:07:34;97087.41;;;12.18;49.86
41140;BME280;26881;48.784;9.192;2024-02-26T17:12:56;97099.69;;;12.08;49.46
41140;BME280;26881;48.784;9.192;2024-02-26T17:18:19;97111.81;;;11.99;50.15
41140;BME280;26881;48.784;9.192;2024-02-26T17:23:43;97124.72;;;11.91;49.96
41140;BME280;26881;48.784;9.192;2024-02-26T17:29:05;97131.16;;;11.77;50.66
41140;BME280;26881;48.784;9.192;2024-02-26T17:34:27;97133.50;;;11.70;49.51
41140;BME280;26881;48.784;9.192;2024-02-26T17:39:49;97146.13;;;11.65;49.53
41140;BME280;26881;48.784;9.192;2024-02-26T17:45:13;97154.38;;;11.60;49.87
41140;BME280;26881;48.784;9.192;2024-02-26T17:50:35;97160.28;;;11.53;50.06
41140;BME280;26881;48.784;9.192;2024-02-26T17:55:57;97168.41;;;11.50;50.63
41140;BME280;26881;48.784;9.192;2024-02-26T18:01:22;97177.59;;;11.44;50.09
41140;BME280;26881;48.784;9.192;2024-02-26T18:06:44;97184.31;;;11.37;50.64
41140;BME280;26881;48.784;9.192;2024-02-26T18:12:07;97198.88;;;11.30;54.03
41140;BME280;26881;48.784;9.192;2024-02-26T18:17:30;97202.91;;;11.34;52.69
41140;BME280;26881;48.784;9.192;2024-02-26T18:22:52;97222.75;;;11.36;52.59
41140;BME280;26881;48.784;9.192;2024-02-26T18:28:16;97231.13;;;11.30;51.83
41140;BME280;26881;48.784;9.192;2024-02-26T18:33:40;97246.53;;;11.24;52.00
41140;BME280;26881;48.784;9.192;2024-02-26T18:39:03;97249.75;;;11.16;52.12
41140;BME280;26881;48.784;9.192;2024-02-26T18:44:26;97256.66;;;11.17;52.62
41140;BME280;26881;48.784;9.192;2024-02-26T18:49:49;97255.97;;;11.15;53.52
41140;BME280;26881;48.784;9.192;2024-02-26T18:55:11;97263.97;;;11.02;54.31
41140;BME280;26881;48.784;9.192;2024-02-26T19:00:33;97260.56;;;10.90;55.58
41140;BME280;26881;48.784;9.192;2024-02-26T19:05:56;97270.47;;;10.87;55.75
41140;BME280;26881;48.784;9.192;2024-02-26T19:11:18;97275.25;;;10.82;56.76
41140;BME280;26881;48.784;9.192;2024-02-26T19:16:41;97286.19;;;10.75;57.30
41140;BME280;26881;48.784;9.192;2024-02-26T19:22:04;97296.94;;;10.61;57.48
41140;BME280;26881;48.784;9.192;2024-02-26T19:27:33;97296.25;;;10.37;58.12
41140;BME280;26881;48.784;9.192;2024-02-26T19:32:55;97321.81;;;10.33;59.00
41140;BME280;26881;48.784;9.192;2024-02-26T19:38:17;97319.97;;;10.22;59.70
41140;BME280;26881;48.784;9.192;2024-02-26T19:43:39;97314.28;;;10.17;59.96
41140;BME280;26881;48.784;9.192;2024-02-26T19:49:01;97320.34;;;10.18;60.32
41140;BME280;26881;48.784;9.192;2024-02-26T19:54:23;97335.44;;;10.14;60.28
41140;BME280;26881;48.784;9.192;2024-02-26T19:59:45;97358.22;;;10.12;60.60
41140;BME280;26881;48.784;9.192;2024-02-26T20:05:08;97357.72;;;10.07;60.32
41140;BME280;26881;48.784;9.192;2024-02-26T20:10:31;97367.00;;;10.11;60.73
41140;BME280;26881;48.784;9.192;2024-02-26T20:15:53;97364.16;;;10.14;60.62
41140;BME280;26881;48.784;9.192;2024-02-26T20:21:15;97374.13;;;10.09;60.77
41140;BME280;26881;48.784;9.192;2024-02-26T20:26:38;97385.41;;;10.09;61.22
41140;BME280;26881;48.784;9.192;2024-02-26T20:32:00;97387.91;;;10.11;61.32
41140;BME280;26881;48.784;9.192;2024-02-26T20:37:24;97392.75;;;10.04;61.66
41140;BME280;26881;48.784;9.192;2024-02-26T20:42:50;97408.78;;;10.11;61.05
41140;BME280;26881;48.784;9.192;2024-02-26T20:48:12;97406.66;;;10.16;60.82
41140;BME280;26881;48.784;9.192;2024-02-26T20:53:35;97415.47;;;10.15;60.02
41140;BME280;26881;48.784;9.192;2024-02-26T20:58:58;97425.66;;;10.07;61.52
41140;BME280;26881;48.784;9.192;2024-02-26T21:04:20;97431.34;;;10.01;61.95
41140;BME280;26881;48.784;9.192;2024-02-26T21:09:45;97430.53;;;10.00;62.13
41140;BME280;26881;48.784;9.192;2024-02-26T21:15:07;97446.31;;;9.99;63.66
41140;BME280;26881;48.784;9.192;2024-02-26T21:20:29;97455.06;;;9.62;64.75
41140;BME280;26881;48.784;9.192;2024-02-26T21:25:53;97461.09;;;9.52;65.46
41140;BME280;26881;48.784;9.192;2024-02-26T21:31:15;97479.44;;;9.74;62.76
41140;BME280;26881;48.784;9.192;2024-02-26T21:36:37;97494.34;;;9.85;62.12
41140;BME280;26881;48.784;9.192;2024-02-26T21:41:59;97514.25;;;9.86;61.79
41140;BME280;26881;48.784;9.192;2024-02-26T21:47:21;97522.47;;;9.92;61.83
41140;BME280;26881;48.784;9.192;2024-02-26T21:52:43;97519.06;;;9.92;61.63
41140;BME280;26881;48.784;9.192;2024-02-26T21:58:05;97533.47;;;9.98;62.08
41140;BME280;26881;48.784;9.192;2024-02-26T22:03:27;97529.00;;;9.87;61.25
41140;BME280;26881;48.784;9.192;2024-02-26T22:08:49;97524.16;;;9.94;61.74
41140;BME280;26881;48.784;9.192;2024-02-26T22:14:11;97528.34;;;9.96;62.12
41140;BME280;26881;48.784;9.192;2024-02-26T22:19:33;97530.22;;;9.94;63.33
41140;BME280;26881;48.784;9.192;2024-02-26T22:24:55;97522.97;;;9.86;64.28
41140;BME280;26881;48.784;9.192;2024-02-26T22:30:17;97517.72;;;9.86;65.33
41140;BME280;26881;48.784;9.192;2024-02-26T22:35:39;97525.03;;;9.81;64.72
41140;BME280;26881;48.784;9.192;2024-02-26T22:41:01;97541.06;;;9.77;65.99
41140;BME280;26881;48.784;9.192;2024-02-26T22:46:23;97555.63;;;9.68;65.74
41140;BME280;26881;48.784;9.192;2024-02-26T22:51:45;97569.00;;;9.63;65.87
41140;BME280;26881;48.784;9.192;2024-02-26T22:57:09;97562.63;;;9.67;65.95
41140;BME280;26881;48.784;9.192;2024-02-26T23:02:31;97578.16;;;9.69;66.35
41140;BME280;26881;48.784;9.192;2024-02-26T23:07:54;97579.84;;;9.70;66.58
41140;BME280;26881;48.784;9.192;2024-02-26T23:13:17;97584.09;;;9.71;67.21
41140;BME280;26881;48.784;9.192;2024-02-26T23:18:39;97596.44;;;9.69;68.15
41140;BME280;26881;48.784;9.192;2024-02-26T23:24:01;97585.25;;;9.67;68.47
41140;BME280;26881;48.784;9.192;2024-02-26T23:29:23;97576.19;;;9.60;68.59
41140;BME280;26881;48.784;9.192;2024-02-26T23:34:45;97589.47;;;9.57;68.92
41140;BME280;26881;48.784;9.192;2024-02-26T23:40:07;97574.97;;;9.53;69.22
41140;BME280;26881;48.784;9.192;2024-02-26T23:45:29;97596.91;;;9.50;69.64
41140;BME280;26881;48.784;9.192;2024-02-26T23:50:51;97596.72;;;9.40;70.67
41140;BME280;26881;48.784;9.192;2024-02-26T23:56:13;97600.25;;;9.39;70.95
